Flight Track Log - Related Links

Times and Time Zones

All times are in EDT time to prevent confusion due to time zone crossing. See the N569LM flight status page for this flight to view local times or setup timezone preferences in your user account.

Time Position Orientation Groundspeed Altitude Reporting Facility
EDT Latitude Longitude Course Direction KTS MPH feet Rate Location/Type
Sun 05:51:23 PM 29.5233 -98.4711 217° Southwest 155 178 1,300  Level Houston Center
Sun 05:51:40 PM 29.5144 -98.4789 217° Southwest 171 197 1,700 1,823 Climbing Houston Center
Sun 05:52:42 PM 29.4594 -98.5214 214° Southwest 222 255 3,700 2,226 Climbing Houston Center
Sun 05:53:44 PM 29.3961 -98.5472 200° South 239 275 6,300 2,400 Climbing Houston Center
Sun 05:54:47 PM 29.3261 -98.5733 198° South 244 281 8,700 2,064 Climbing Houston Center
Sun 05:55:49 PM 29.2575 -98.6014 200° South 255 293 10,600 1,984 Climbing Houston Center
Sun 05:56:51 PM 29.1869 -98.6439 208° Southwest 264 304 12,800 1,935 Climbing Houston Center
Sun 05:57:53 PM 29.1147 -98.6817 205° Southwest 281 323 14,600 1,742 Climbing Houston Center
Sun 05:58:55 PM 29.0356 -98.7253 206° Southwest 290 334 16,400 1,776 Climbing Houston Center
Sun 05:59:58 PM 28.9597 -98.7653 205° Southwest 299 344 18,300 1,824 Climbing Houston Center
Sun 06:01:00 PM 28.8758 -98.8078 204° Southwest 302 348 20,200 1,790 Climbing Houston Center
Sun 06:02:02 PM 28.7994 -98.8492 205° Southwest 303 349 22,000 1,355 Climbing Houston Center
Sun 06:03:04 PM 28.7211 -98.8897 204° Southwest 309 356 23,000 484 Climbing Houston Center
Sun 06:04:06 PM 28.6372 -98.9364 206° Southwest 351 404 23,000 677 Level Houston Center
Sun 06:05:08 PM 28.5464 -98.9847 205° Southwest 359 413 24,400 1,403 Climbing Houston Center
Sun 06:06:10 PM 28.4617 -99.0286 204° Southwest 338 389 25,900 774 Climbing Houston Center
Sun 06:07:12 PM 28.3572 -99.0847 205° Southwest 351 404 26,000 48 Climbing Houston Center
Sun 06:08:15 PM 28.2631 -99.1336 205° Southwest 370 426 26,000  Level Houston Center
Sun 06:09:17 PM 28.1667 -99.1844 205° Southwest 378 435 26,000  Level Houston Center
Sun 06:10:19 PM 28.0697 -99.2353 205° Southwest 384 442 26,000  Level Houston Center
Sun 06:11:21 PM 27.9728 -99.2864 205° Southwest 384 442 26,000  Level Houston Center
Sun 06:12:23 PM 27.8561 -99.3486 205° Southwest 386 444 26,000  Level Houston Center
Sun 06:13:25 PM 27.7575 -99.3994 205° Southwest 390 449 26,000  Level Houston Center
Sun 06:14:27 PM 27.6597 -99.4508 205° Southwest 390 449 26,000  Level Houston Center
Sun 06:15:30 PM 27.5617 -99.5019 205° Southwest 390 449 26,000  Level Houston Center
Sun 06:17:00 PM 27.4388 -99.5501 214° Southwest  Level FlightAware Approximate
Sun 06:24:00 PM 26.8572 -99.7436 196° South  Level FlightAware Approximate
Sun 06:25:00 PM 26.7736 -99.7699 197° South  Level FlightAware Approximate
Sun 06:26:00 PM 26.6904 -99.7977 197° South  Level FlightAware Approximate
Sun 06:27:00 PM 26.6071 -99.8255 197° South  Level FlightAware Approximate
Sun 06:28:00 PM 26.5239 -99.8532 197° South  Level FlightAware Approximate
Sun 06:29:00 PM 26.4407 -99.8809 197° South  Level FlightAware Approximate
Sun 06:30:00 PM 26.3573 -99.9078 195° South  Level FlightAware Approximate
Sun 06:31:00 PM 26.2734 -99.9330 195° South  Level FlightAware Approximate
Sun 06:32:00 PM 26.1898 -99.9590 197° South  Level FlightAware Approximate
Sun 06:33:00 PM 26.1066 -99.9867 197° South  Level FlightAware Approximate
Sun 06:34:00 PM 26.0234 -100.0144 197° South  Level FlightAware Approximate
Sun 06:35:00 PM 25.9396 -100.0398 195° South  Level FlightAware Approximate
Sun 06:36:00 PM 25.8558 -100.0649 195° South  Level FlightAware Approximate
Sun 06:37:00 PM 25.7743 -100.0975 197° South  Level FlightAware Approximate
Sun 06:38:00 PM 25.8171 -100.1674 299° West  Level FlightAware Approximate
Sun 06:39:00 PM 25.8641 -100.2475 318° Northwest  Level FlightAware Approximate
Sun 06:40:00 PM 25.8667 -100.2500 318° Northwest  Level FlightAware Approximate
Sun 06:41:00 PM 25.8656 -100.2372 318° Northwest  Level Estimated
Sun 06:42:00 PM 25.8656 -100.2372 318° Northwest  Level Estimated
Sun 06:43:00 PM 25.8656 -100.2372 318° Northwest  Level Estimated
Sun 06:44:00 PM 25.8656 -100.2372 318° Northwest  Level Estimated
Sun 06:45:00 PM 25.8656 -100.2372 318° Northwest  Level Estimated
Sun 06:46:00 PM 25.8656 -100.2372 318° Northwest  Level Estimated
Sun 06:47:00 PM 25.8656 -100.2372 318° Northwest  Level Estimated
Sun 06:48:00 PM 25.8656 -100.2372 318° Northwest  Level Estimated
Sun 06:49:00 PM 25.8656 -100.2372 318° Northwest  Level Estimated
Sun 06:50:00 PM 25.8656 -100.2372 318° Northwest  Level Estimated
Sun 06:51:00 PM 25.8656 -100.2372 318° Northwest  Level Estimated
Sun 06:52:00 PM 25.8656 -100.2372 318° Northwest  Level Estimated
Sun 06:53:00 PM 25.8656 -100.2372 318° Northwest  Level Estimated
Sun 06:54:00 PM 25.8656 -100.2372 318° Northwest  Level Estimated
Sun 06:55:00 PM 25.8656 -100.2372 318° Northwest  Level Estimated

Login

Don't have an account? Register now (free) for customized features, flight alerts, and more!